createdAt,value
2023-05-09T00:01:37.024Z,40.33
2023-05-09T00:04:04.234Z,37.30
2023-05-09T00:06:32.515Z,38.67
2023-05-09T00:08:59.518Z,38.47
2023-05-09T00:11:27.618Z,37.90
2023-05-09T00:13:54.769Z,38.42
2023-05-09T00:16:24.328Z,42.08
2023-05-09T00:18:51.422Z,41.22
2023-05-09T00:21:18.492Z,43.58
2023-05-09T00:23:46.701Z,41.13
2023-05-09T00:26:13.760Z,41.22
2023-05-09T00:28:40.786Z,42.28
2023-05-09T00:31:09.380Z,43.22
2023-05-09T00:33:36.318Z,43.20
2023-05-09T00:36:03.503Z,39.28
2023-05-09T00:38:30.496Z,39.35
2023-05-09T00:40:57.525Z,37.67
2023-05-09T00:43:24.589Z,37.88
2023-05-09T00:45:51.897Z,39.75
2023-05-09T00:48:19.486Z,40.25
2023-05-09T00:50:47.856Z,39.17
2023-05-09T00:53:15.103Z,40.33
2023-05-09T00:55:42.305Z,39.42
2023-05-09T00:58:09.420Z,41.05
2023-05-09T01:00:36.883Z,40.20
2023-05-09T01:03:05.167Z,38.40
2023-05-09T01:05:57.273Z,38.45
2023-05-09T01:08:43.030Z,43.28
2023-05-09T01:11:34.529Z,38.72
2023-05-09T01:14:31.243Z,40.70
2023-05-09T01:17:21.797Z,41.83
2023-05-09T01:20:18.838Z,42.42
2023-05-09T01:23:11.185Z,41.58
2023-05-09T01:26:06.177Z,40.80
2023-05-09T01:28:48.091Z,43.15
2023-05-09T01:31:17.352Z,40.28
2023-05-09T01:33:47.112Z,40.35
2023-05-09T01:36:18.446Z,41.13
2023-05-09T01:38:50.494Z,40.22
2023-05-09T01:41:19.503Z,43.28
2023-05-09T01:43:47.511Z,44.15
2023-05-09T01:46:17.807Z,40.40
2023-05-09T01:48:45.750Z,41.70
2023-05-09T01:51:14.718Z,41.50
2023-05-09T01:53:43.124Z,40.92
2023-05-09T01:56:11.644Z,40.15
2023-05-09T01:58:39.902Z,42.72
2023-05-09T02:01:07.482Z,45.22
2023-05-09T02:03:37.366Z,45.42
2023-05-09T02:06:05.518Z,44.15
2023-05-09T02:08:33.703Z,45.33
2023-05-09T02:11:00.793Z,44.80
2023-05-09T02:13:27.944Z,53.03
2023-05-09T02:15:55.961Z,43.70
2023-05-09T02:18:23.131Z,45.33
2023-05-09T02:20:50.216Z,49.10
2023-05-09T02:23:17.283Z,46.28
2023-05-09T02:25:45.336Z,48.80
2023-05-09T02:28:13.731Z,46.88
2023-05-09T02:30:44.379Z,52.28
2023-05-09T02:33:13.327Z,47.22
2023-05-09T02:35:45.984Z,44.72
2023-05-09T02:38:13.800Z,49.40
2023-05-09T02:40:43.772Z,47.92
2023-05-09T02:43:11.446Z,47.10
2023-05-09T02:45:38.605Z,41.67
2023-05-09T02:48:08.312Z,44.58
2023-05-09T02:50:38.615Z,45.22
2023-05-09T02:53:06.345Z,43.55
2023-05-09T02:55:33.457Z,45.22
2023-05-09T02:58:12.823Z,42.13
2023-05-09T03:00:41.060Z,45.58
2023-05-09T03:03:09.703Z,45.33
2023-05-09T03:05:36.884Z,43.60
2023-05-09T03:08:04.301Z,41.58
2023-05-09T03:10:31.319Z,43.53
2023-05-09T03:12:58.385Z,41.97
2023-05-09T03:15:27.104Z,42.88
2023-05-09T03:17:54.184Z,41.17
2023-05-09T03:20:21.626Z,44.88
2023-05-09T03:22:48.747Z,42.30
2023-05-09T03:25:17.034Z,42.20
2023-05-09T03:27:44.187Z,41.45
2023-05-09T03:30:11.774Z,40.47
2023-05-09T03:32:39.602Z,43.03
2023-05-09T03:35:07.394Z,49.25
2023-05-09T03:37:34.729Z,42.40
2023-05-09T03:40:02.099Z,42.33
2023-05-09T03:42:31.217Z,41.28
2023-05-09T03:44:58.986Z,43.53
2023-05-09T03:47:26.013Z,46.10
2023-05-09T03:49:53.732Z,41.13
2023-05-09T03:52:20.807Z,43.95
2023-05-09T03:54:47.916Z,44.70
2023-05-09T03:57:14.925Z,41.92
2023-05-09T03:59:42.060Z,44.85
2023-05-09T04:02:09.296Z,40.08
2023-05-09T04:04:36.377Z,40.58
2023-05-09T04:07:03.498Z,40.58
2023-05-09T04:09:30.931Z,39.60
2023-05-09T04:11:57.897Z,40.70
2023-05-09T04:14:25.068Z,42.05
2023-05-09T04:16:52.242Z,38.97
2023-05-09T04:19:19.265Z,40.70
2023-05-09T04:21:47.685Z,39.72
2023-05-09T04:24:14.662Z,41.47
2023-05-09T04:26:42.283Z,40.25
2023-05-09T04:29:09.659Z,41.40
2023-05-09T04:31:36.803Z,36.72
2023-05-09T04:34:03.958Z,39.33
2023-05-09T04:36:32.045Z,38.67
2023-05-09T04:39:00.276Z,41.42
2023-05-09T04:41:27.894Z,35.80
2023-05-09T04:43:54.947Z,35.50
2023-05-09T04:46:25.014Z,36.75
2023-05-09T04:48:52.623Z,35.13
2023-05-09T04:51:19.886Z,34.45
2023-05-09T04:53:47.142Z,33.20
2023-05-09T04:56:14.926Z,34.65
2023-05-09T04:58:41.965Z,34.35
2023-05-09T05:01:08.949Z,33.00
2023-05-09T05:03:35.975Z,33.33
2023-05-09T05:06:03.141Z,30.85
2023-05-09T05:08:30.111Z,32.63
2023-05-09T05:10:57.442Z,31.15
2023-05-09T05:13:24.554Z,30.92
2023-05-09T05:15:52.359Z,30.20
2023-05-09T05:18:20.795Z,29.30
2023-05-09T05:20:48.018Z,30.25
2023-05-09T05:23:15.005Z,30.02
2023-05-09T05:25:42.208Z,32.42
2023-05-09T05:28:10.894Z,28.75
2023-05-09T05:30:37.981Z,28.90
2023-05-09T05:33:05.145Z,32.13
2023-05-09T05:35:32.177Z,28.83
2023-05-09T05:37:59.219Z,40.08
2023-05-09T05:40:26.367Z,32.70
2023-05-09T05:42:53.448Z,28.55
2023-05-09T05:45:20.794Z,27.80
2023-05-09T05:47:47.849Z,29.38
2023-05-09T05:50:16.321Z,28.88
2023-05-09T05:52:43.365Z,27.30
2023-05-09T05:55:10.754Z,26.25
2023-05-09T05:57:39.427Z,26.05
2023-05-09T06:00:16.997Z,26.30
2023-05-09T06:02:45.486Z,26.67
2023-05-09T06:05:13.009Z,25.30
2023-05-09T06:07:44.483Z,25.60
2023-05-09T06:10:11.548Z,26.75
2023-05-09T06:12:38.835Z,25.45
2023-05-09T06:15:06.439Z,25.77
2023-05-09T06:17:34.097Z,25.83
2023-05-09T06:20:02.305Z,25.90
2023-05-09T06:22:29.330Z,26.42
2023-05-09T06:24:56.382Z,26.02
2023-05-09T06:27:23.535Z,26.90
2023-05-09T06:29:52.709Z,26.42
2023-05-09T06:32:19.765Z,26.45
2023-05-09T06:34:46.873Z,25.25
2023-05-09T06:37:13.927Z,24.88
2023-05-09T06:39:40.888Z,24.45
2023-05-09T06:42:07.884Z,24.30
2023-05-09T06:44:34.922Z,24.95
2023-05-09T06:47:01.993Z,24.05
2023-05-09T06:49:29.082Z,24.23
2023-05-09T06:51:56.046Z,25.08
2023-05-09T06:54:23.081Z,24.38
2023-05-09T06:56:50.081Z,24.92
2023-05-09T06:59:17.367Z,24.48
2023-05-09T07:01:44.564Z,23.73
2023-05-09T07:04:11.619Z,23.05
2023-05-09T07:06:38.613Z,23.48
2023-05-09T07:09:05.683Z,23.38
2023-05-09T07:11:38.798Z,24.42
2023-05-09T07:14:05.830Z,23.35
2023-05-09T07:16:34.604Z,24.58
2023-05-09T07:19:02.964Z,23.83
2023-05-09T07:21:30.007Z,23.20
2023-05-09T07:23:57.121Z,23.42
2023-05-09T07:26:24.201Z,23.35
2023-05-09T07:28:51.182Z,23.30
2023-05-09T07:31:18.214Z,23.42
2023-05-09T07:33:45.289Z,23.98
2023-05-09T07:36:16.996Z,24.02
2023-05-09T07:38:44.047Z,23.17
2023-05-09T07:41:11.585Z,23.73
2023-05-09T07:43:38.849Z,22.83
2023-05-09T07:46:06.331Z,23.40
2023-05-09T07:48:33.424Z,24.48
2023-05-09T07:51:00.552Z,23.35
2023-05-09T07:53:27.594Z,23.45
2023-05-09T07:55:56.703Z,23.38
2023-05-09T07:58:25.048Z,23.15
2023-05-09T08:00:52.039Z,23.52
2023-05-09T08:03:21.041Z,23.90
2023-05-09T08:05:48.217Z,23.20
2023-05-09T08:08:15.238Z,23.05
2023-05-09T08:10:42.274Z,23.80
2023-05-09T08:13:09.815Z,23.40
2023-05-09T08:15:36.767Z,22.38
2023-05-09T08:18:04.054Z,22.08
2023-05-09T08:20:34.636Z,28.40
2023-05-09T08:23:01.716Z,22.80
2023-05-09T08:25:29.764Z,22.15
2023-05-09T08:27:57.592Z,21.95
2023-05-09T08:30:25.114Z,21.95
2023-05-09T08:32:52.076Z,22.55
2023-05-09T08:35:19.249Z,21.77
2023-05-09T08:37:48.164Z,21.23
2023-05-09T08:40:16.029Z,21.35
2023-05-09T08:42:45.939Z,21.88
2023-05-09T08:45:17.179Z,21.88
2023-05-09T08:47:45.831Z,21.65
2023-05-09T08:50:15.711Z,22.00
2023-05-09T08:52:43.124Z,21.60
2023-05-09T08:55:10.374Z,22.30
2023-05-09T08:57:37.702Z,21.95
2023-05-09T09:00:11.409Z,22.25
2023-05-09T09:02:42.342Z,22.70
2023-05-09T09:05:19.625Z,21.90
2023-05-09T09:07:56.622Z,23.33
2023-05-09T09:10:27.285Z,23.02
2023-05-09T09:12:57.506Z,22.77
2023-05-09T09:15:29.116Z,23.33
2023-05-09T09:17:59.973Z,23.08
2023-05-09T09:20:28.686Z,22.67
2023-05-09T09:23:02.906Z,23.15
2023-05-09T09:25:29.953Z,23.40
2023-05-09T09:27:57.016Z,23.50
2023-05-09T09:30:27.836Z,22.90
2023-05-09T09:32:58.877Z,23.00
2023-05-09T09:35:26.204Z,23.67
2023-05-09T09:38:01.709Z,23.33
2023-05-09T09:40:28.723Z,23.17
2023-05-09T09:42:55.680Z,22.80
2023-05-09T09:45:22.818Z,22.48
2023-05-09T09:47:50.463Z,23.60
2023-05-09T09:50:19.726Z,23.15
2023-05-09T09:52:52.402Z,23.35
2023-05-09T09:55:20.875Z,23.42
2023-05-09T09:57:48.829Z,24.45
2023-05-09T10:00:18.112Z,24.20
2023-05-09T10:02:53.467Z,23.60
2023-05-09T10:05:22.748Z,22.80
2023-05-09T10:07:56.645Z,22.65
2023-05-09T10:10:28.546Z,23.40
2023-05-09T10:13:04.707Z,24.40
2023-05-09T10:15:41.488Z,23.17
2023-05-09T10:18:20.449Z,24.67
2023-05-09T10:20:47.942Z,24.63
2023-05-09T10:23:16.703Z,23.45
2023-05-09T10:25:59.807Z,23.67
2023-05-09T10:28:32.559Z,22.63
2023-05-09T10:31:25.481Z,23.45
2023-05-09T10:33:52.999Z,24.60
2023-05-09T10:36:26.553Z,24.02
2023-05-09T10:38:55.263Z,23.30
2023-05-09T10:41:22.741Z,23.63
2023-05-09T10:43:50.046Z,24.33
2023-05-09T10:46:18.000Z,24.70
2023-05-09T10:48:45.786Z,24.65
2023-05-09T10:51:13.329Z,24.02
2023-05-09T10:53:49.138Z,24.48
2023-05-09T10:56:25.394Z,24.90
2023-05-09T10:58:52.757Z,24.92
2023-05-09T11:01:35.498Z,24.45
2023-05-09T11:04:10.282Z,24.85
2023-05-09T11:06:51.239Z,24.85
2023-05-09T11:09:41.622Z,24.85
2023-05-09T11:12:13.396Z,25.40
2023-05-09T11:14:47.094Z,23.65
2023-05-09T11:17:23.280Z,24.13
2023-05-09T11:19:50.525Z,23.00
2023-05-09T11:22:24.874Z,24.27
2023-05-09T11:24:59.610Z,23.70
2023-05-09T11:27:29.132Z,23.88
2023-05-09T11:29:57.962Z,25.90
2023-05-09T11:32:31.830Z,25.80
2023-05-09T11:35:09.580Z,25.27
2023-05-09T11:37:50.131Z,25.65
2023-05-09T11:40:19.374Z,23.90
2023-05-09T11:42:49.526Z,22.90
2023-05-09T11:45:17.839Z,24.13
2023-05-09T11:47:46.448Z,24.25
2023-05-09T11:50:16.331Z,25.98
2023-05-09T11:52:43.907Z,26.20
2023-05-09T11:55:14.347Z,26.58
2023-05-09T11:57:46.425Z,25.05
2023-05-09T12:00:18.663Z,25.95
2023-05-09T12:02:46.684Z,24.77
2023-05-09T12:05:16.537Z,25.30
2023-05-09T12:07:44.706Z,25.02
2023-05-09T12:10:17.310Z,24.98
2023-05-09T12:12:50.482Z,24.92
2023-05-09T12:15:18.273Z,24.43
2023-05-09T12:17:47.692Z,24.55
2023-05-09T12:20:16.773Z,24.85
2023-05-09T12:22:44.842Z,24.45
2023-05-09T12:25:12.565Z,24.80
2023-05-09T12:27:41.267Z,23.15
2023-05-09T12:30:10.820Z,24.63
2023-05-09T12:32:40.604Z,24.38
2023-05-09T12:35:10.969Z,24.13
2023-05-09T12:37:39.645Z,24.15
2023-05-09T12:40:12.618Z,23.15
2023-05-09T12:42:40.019Z,23.42
2023-05-09T12:45:09.681Z,24.30
2023-05-09T12:47:42.175Z,24.20
2023-05-09T12:50:12.441Z,24.92
2023-05-09T12:52:58.898Z,24.15
2023-05-09T12:55:30.537Z,24.33
2023-05-09T12:58:03.807Z,24.05
2023-05-09T13:00:44.116Z,24.58
2023-05-09T13:03:27.709Z,23.63
2023-05-09T13:06:02.066Z,23.37
2023-05-09T13:08:29.788Z,24.92
2023-05-09T13:11:12.071Z,23.17
2023-05-09T13:13:43.261Z,24.00
2023-05-09T13:16:11.673Z,23.98
2023-05-09T13:18:39.778Z,23.13
2023-05-09T13:21:07.211Z,23.55
2023-05-09T13:23:34.187Z,23.10
2023-05-09T13:26:01.277Z,23.33
2023-05-09T13:28:29.562Z,23.80
2023-05-09T13:30:56.621Z,23.63
2023-05-09T13:33:26.629Z,22.42
2023-05-09T13:35:54.278Z,23.13
2023-05-09T13:38:21.460Z,22.58
2023-05-09T13:40:48.431Z,22.77
2023-05-09T13:43:15.568Z,22.60
2023-05-09T13:45:42.743Z,23.35
2023-05-09T13:48:10.091Z,22.90
2023-05-09T13:50:37.339Z,22.27
2023-05-09T13:53:04.710Z,23.90
2023-05-09T13:55:31.785Z,24.35
2023-05-09T13:57:59.104Z,23.33
2023-05-09T14:00:26.820Z,23.33
2023-05-09T14:02:54.024Z,23.65
2023-05-09T14:05:22.749Z,22.92
2023-05-09T14:07:49.723Z,22.95
2023-05-09T14:10:17.783Z,23.30
2023-05-09T14:12:47.462Z,23.90
2023-05-09T14:15:14.627Z,22.95
2023-05-09T14:17:43.599Z,23.17
2023-05-09T14:20:11.107Z,22.73
2023-05-09T14:22:38.106Z,22.50
2023-05-09T14:25:06.749Z,23.40
2023-05-09T14:27:37.067Z,23.00
2023-05-09T14:30:05.267Z,23.35
2023-05-09T14:32:32.897Z,22.80
2023-05-09T14:35:02.257Z,22.75
2023-05-09T14:37:29.620Z,23.60
2023-05-09T14:39:58.481Z,23.30
2023-05-09T14:42:25.682Z,22.30
2023-05-09T14:44:52.693Z,22.50
2023-05-09T14:47:21.195Z,22.55
2023-05-09T14:49:48.218Z,23.45
2023-05-09T14:52:15.464Z,23.00
2023-05-09T14:54:42.432Z,22.90
2023-05-09T14:57:09.887Z,23.42
2023-05-09T14:59:37.670Z,23.00
2023-05-09T15:02:04.800Z,22.98
2023-05-09T15:04:32.093Z,22.67
2023-05-09T15:07:00.802Z,22.55
2023-05-09T15:09:28.101Z,22.73
2023-05-09T15:11:55.455Z,22.35
2023-05-09T15:14:22.434Z,22.38
2023-05-09T15:16:52.752Z,21.65
2023-05-09T15:19:19.861Z,22.60
2023-05-09T15:21:46.863Z,23.00
2023-05-09T15:24:16.522Z,22.38
2023-05-09T15:26:43.647Z,22.60
2023-05-09T15:29:10.591Z,21.85
2023-05-09T15:31:37.557Z,23.40
2023-05-09T15:34:04.765Z,23.17
2023-05-09T15:36:33.956Z,22.13
2023-05-09T15:39:01.054Z,22.50
2023-05-09T15:41:28.790Z,21.70
2023-05-09T15:43:55.957Z,22.73
2023-05-09T15:46:23.209Z,22.00
2023-05-09T15:48:50.541Z,23.10
2023-05-09T15:51:17.637Z,21.05
2023-05-09T15:53:45.020Z,21.13
2023-05-09T15:56:11.946Z,21.52
2023-05-09T15:58:40.830Z,20.67
2023-05-09T16:01:08.309Z,21.15
2023-05-09T16:03:35.800Z,20.52
2023-05-09T16:06:03.468Z,20.80
2023-05-09T16:08:30.505Z,21.23
2023-05-09T16:11:01.240Z,20.85
2023-05-09T16:13:28.411Z,20.23
2023-05-09T16:15:55.784Z,20.60
2023-05-09T16:18:23.113Z,20.15
2023-05-09T16:20:50.260Z,21.48
2023-05-09T16:23:17.650Z,20.77
2023-05-09T16:25:45.163Z,19.83
2023-05-09T16:28:12.409Z,20.60
2023-05-09T16:30:39.433Z,20.42
2023-05-09T16:33:06.491Z,20.35
2023-05-09T16:35:34.127Z,20.67
2023-05-09T16:38:01.163Z,20.67
2023-05-09T16:40:28.659Z,20.83
2023-05-09T16:42:55.923Z,20.13
2023-05-09T16:45:22.988Z,19.95
2023-05-09T16:47:51.373Z,20.38
2023-05-09T16:50:18.525Z,20.00
2023-05-09T16:52:45.671Z,20.13
2023-05-09T16:55:12.775Z,20.42
2023-05-09T16:57:40.027Z,20.35
2023-05-09T17:00:08.051Z,20.55
2023-05-09T17:02:36.536Z,20.08
2023-05-09T17:05:04.463Z,20.15
2023-05-09T17:07:32.406Z,19.67
2023-05-09T17:09:59.848Z,19.63
2023-05-09T17:12:27.809Z,19.92
2023-05-09T17:14:54.736Z,20.35
2023-05-09T17:17:21.798Z,20.33
2023-05-09T17:19:48.811Z,20.02
2023-05-09T17:22:15.830Z,19.88
2023-05-09T17:24:42.856Z,19.80
2023-05-09T17:27:11.665Z,19.52
2023-05-09T17:29:38.761Z,19.10
2023-05-09T17:32:06.859Z,19.92
2023-05-09T17:34:33.893Z,19.83
2023-05-09T17:37:02.606Z,19.42
2023-05-09T17:39:29.706Z,19.50
2023-05-09T17:41:56.762Z,19.15
2023-05-09T17:44:24.151Z,19.60
2023-05-09T17:46:51.437Z,19.40
2023-05-09T17:49:19.912Z,19.27
2023-05-09T17:51:46.901Z,19.75
2023-05-09T17:54:15.953Z,19.60
2023-05-09T17:56:43.101Z,19.50
2023-05-09T17:59:10.152Z,19.58
2023-05-09T18:01:37.213Z,19.08
2023-05-09T18:04:04.398Z,18.50
2023-05-09T18:06:31.988Z,18.77
2023-05-09T18:08:59.136Z,18.60
2023-05-09T18:11:26.347Z,18.00
2023-05-09T18:13:53.940Z,18.65
2023-05-09T18:16:21.045Z,18.20
2023-05-09T18:18:48.517Z,18.33
2023-05-09T18:21:15.833Z,18.35
2023-05-09T18:23:43.012Z,18.85
2023-05-09T18:26:11.275Z,19.25
2023-05-09T18:28:41.005Z,20.00
2023-05-09T18:31:10.248Z,19.90
2023-05-09T18:33:39.135Z,19.75
2023-05-09T18:36:09.611Z,19.52
2023-05-09T18:38:41.123Z,18.55
2023-05-09T18:41:09.881Z,19.77
2023-05-09T18:43:38.985Z,19.55
2023-05-09T18:46:08.133Z,19.13
2023-05-09T18:48:35.390Z,18.92
2023-05-09T18:51:04.515Z,20.42
2023-05-09T18:53:33.865Z,19.30
2023-05-09T18:56:01.921Z,20.60
2023-05-09T18:58:32.566Z,19.30
2023-05-09T19:00:59.738Z,19.15
2023-05-09T19:03:27.403Z,19.58
2023-05-09T19:05:56.204Z,19.25
2023-05-09T19:08:23.297Z,18.75
2023-05-09T19:10:50.591Z,19.42
2023-05-09T19:13:19.057Z,19.70
2023-05-09T19:15:47.583Z,19.10
2023-05-09T19:18:14.621Z,19.17
2023-05-09T19:20:41.675Z,19.10
2023-05-09T19:23:09.007Z,19.10
2023-05-09T19:25:37.843Z,19.25
2023-05-09T19:28:05.401Z,18.88
2023-05-09T19:30:32.535Z,19.30
2023-05-09T19:33:00.031Z,20.30
2023-05-09T19:35:27.113Z,21.77
2023-05-09T19:37:54.162Z,22.05
2023-05-09T19:40:21.749Z,20.77
2023-05-09T19:42:49.713Z,21.10
2023-05-09T19:45:16.831Z,22.52
2023-05-09T19:47:43.917Z,23.80
2023-05-09T19:50:11.654Z,25.92
2023-05-09T19:52:38.735Z,34.83
2023-05-09T19:55:06.774Z,36.92
2023-05-09T19:57:33.794Z,48.60
2023-05-09T20:00:00.944Z,50.83
2023-05-09T20:02:28.057Z,49.65
2023-05-09T20:04:56.572Z,49.22
2023-05-09T20:07:23.925Z,50.58
2023-05-09T20:09:50.986Z,49.40
2023-05-09T20:12:18.059Z,48.85
2023-05-09T20:14:45.493Z,50.47
2023-05-09T20:17:12.609Z,50.97
2023-05-09T20:19:39.862Z,50.05
2023-05-09T20:22:09.088Z,52.10
2023-05-09T20:24:36.117Z,54.08
2023-05-09T20:27:03.310Z,54.10
2023-05-09T20:29:30.458Z,50.20
2023-05-09T20:31:57.829Z,51.42
2023-05-09T20:34:25.093Z,59.58
2023-05-09T20:36:55.211Z,51.47
2023-05-09T20:39:23.221Z,49.97
2023-05-09T20:41:50.832Z,51.15
2023-05-09T20:44:18.661Z,50.20
2023-05-09T20:46:45.632Z,52.15
2023-05-09T20:49:13.181Z,51.92
2023-05-09T20:51:40.204Z,48.92
2023-05-09T20:54:07.413Z,50.33
2023-05-09T20:56:35.694Z,52.35
2023-05-09T20:59:04.401Z,49.95
2023-05-09T21:01:35.895Z,50.75
2023-05-09T21:04:05.873Z,50.90
2023-05-09T21:06:33.312Z,51.65
2023-05-09T21:09:00.381Z,52.53
2023-05-09T21:11:27.636Z,51.25
2023-05-09T21:13:54.739Z,51.95
2023-05-09T21:16:22.221Z,49.28
2023-05-09T21:18:49.311Z,48.30
2023-05-09T21:21:16.761Z,51.85
2023-05-09T21:23:43.815Z,49.28
2023-05-09T21:26:11.128Z,49.67
2023-05-09T21:28:38.140Z,52.60
2023-05-09T21:31:05.353Z,47.67
2023-05-09T21:33:33.708Z,50.88
2023-05-09T21:36:02.456Z,50.22
2023-05-09T21:38:29.522Z,49.20
2023-05-09T21:40:56.542Z,47.75
2023-05-09T21:43:23.866Z,48.70
2023-05-09T21:45:50.857Z,44.38
2023-05-09T21:48:18.057Z,44.58
2023-05-09T21:50:46.267Z,47.70
2023-05-09T21:53:14.697Z,44.85
2023-05-09T21:55:41.675Z,45.60
2023-05-09T21:58:09.034Z,49.72
2023-05-09T22:00:36.017Z,46.65
2023-05-09T22:03:03.034Z,46.50
2023-05-09T22:05:30.218Z,56.97
2023-05-09T22:07:57.253Z,47.83
2023-05-09T22:10:24.283Z,45.15
2023-05-09T22:12:51.244Z,42.78
2023-05-09T22:15:18.316Z,42.80
2023-05-09T22:17:45.434Z,40.67
2023-05-09T22:20:12.818Z,41.03
2023-05-09T22:22:39.949Z,45.15
2023-05-09T22:25:07.265Z,42.35
2023-05-09T22:27:34.505Z,42.33
2023-05-09T22:30:01.725Z,41.42
2023-05-09T22:32:28.892Z,43.20
2023-05-09T22:34:55.969Z,41.25
2023-05-09T22:37:23.037Z,42.25
2023-05-09T22:39:50.116Z,43.00
2023-05-09T22:42:17.207Z,42.20
2023-05-09T22:44:44.245Z,44.13
2023-05-09T22:47:11.573Z,44.08
2023-05-09T22:49:38.941Z,46.08
2023-05-09T22:52:05.973Z,45.97
2023-05-09T22:54:34.999Z,47.47
2023-05-09T22:57:02.109Z,46.90
2023-05-09T22:59:29.086Z,50.58
2023-05-09T23:01:56.295Z,49.00
2023-05-09T23:04:23.357Z,47.65
2023-05-09T23:06:50.627Z,47.53
2023-05-09T23:09:17.576Z,48.40
2023-05-09T23:11:44.582Z,48.47
2023-05-09T23:14:11.733Z,47.67
2023-05-09T23:16:38.733Z,47.47
2023-05-09T23:19:06.914Z,47.78
2023-05-09T23:21:33.958Z,48.85
2023-05-09T23:24:01.175Z,47.78
2023-05-09T23:26:28.234Z,48.17
2023-05-09T23:28:58.353Z,49.10
2023-05-09T23:31:25.733Z,48.67
2023-05-09T23:33:52.945Z,48.30
2023-05-09T23:36:20.118Z,48.22
2023-05-09T23:38:47.159Z,47.60
2023-05-09T23:41:14.505Z,50.03
2023-05-09T23:43:42.045Z,46.97
2023-05-09T23:46:09.348Z,50.05
2023-05-09T23:48:37.686Z,51.55
2023-05-09T23:51:05.158Z,50.13
2023-05-09T23:53:35.140Z,50.25
2023-05-09T23:56:03.035Z,49.70
2023-05-09T23:58:30.062Z,49.05
